Devine, Texas
Current Conditions -  °F | °C
As of 8:55 PM on Tuesday 21 Oct 2014 (Local Time) from KCVB Reporting Station
Clear Clear  
Wind Chill: 75°   Ceiling: Unl
Heat Index: 75°   Visibility: 10mi
Dew Point: 47°   Wind: 5mph
Humidity: 36%   Direction: 80°E
Pressure: 30.02"   Gusts: NA
Location:  29.14°N, 98.91°W
Report Text: KCVB 220155Z AUTO 08004KT 10SM CLR 24/08 A3002 RMK AO2 T02410082
Loading
Personal Weather Stations






























Interactive Weather Map New forecast layout! Learn more

10-Day Weather Forecast

Advertisements
Track Severe Weather on mobile